sensor_id;sensor_type;location;lat;lon;timestamp;temperature;humidity
9800;DHT22;4939;52.00085300;4.17406100;2023-03-26T00:01:21;9.40;99.90
9800;DHT22;4939;52.00085300;4.17406100;2023-03-26T00:03:48;9.50;99.90
9800;DHT22;4939;52.00085300;4.17406100;2023-03-26T00:06:20;9.50;99.90
9800;DHT22;4939;52.00085300;4.17406100;2023-03-26T00:08:47;9.90;99.90
9800;DHT22;4939;52.00085300;4.17406100;2023-03-26T00:11:15;9.40;99.90
9800;DHT22;4939;52.00085300;4.17406100;2023-03-26T00:13:42;9.40;99.90
9800;DHT22;4939;52.00085300;4.17406100;2023-03-26T00:16:09;9.40;99.90
9800;DHT22;4939;52.00085300;4.17406100;2023-03-26T00:18:36;9.40;99.90
9800;DHT22;4939;52.00085300;4.17406100;2023-03-26T00:21:06;9.40;99.90
9800;DHT22;4939;52.00085300;4.17406100;2023-03-26T00:23:33;9.40;99.90
9800;DHT22;4939;52.00085300;4.17406100;2023-03-26T00:26:00;9.50;99.90
9800;DHT22;4939;52.00085300;4.17406100;2023-03-26T00:28:27;9.50;99.90
9800;DHT22;4939;52.00085300;4.17406100;2023-03-26T00:30:58;9.40;99.90
9800;DHT22;4939;52.00085300;4.17406100;2023-03-26T00:33:24;9.50;99.90
9800;DHT22;4939;52.00085300;4.17406100;2023-03-26T00:35:54;9.40;99.90
9800;DHT22;4939;52.00085300;4.17406100;2023-03-26T00:38:21;9.40;99.90
9800;DHT22;4939;52.00085300;4.17406100;2023-03-26T00:40:49;9.40;99.90
9800;DHT22;4939;52.00085300;4.17406100;2023-03-26T00:43:16;9.40;99.90
9800;DHT22;4939;52.00085300;4.17406100;2023-03-26T00:45:45;9.40;99.90
9800;DHT22;4939;52.00085300;4.17406100;2023-03-26T00:48:12;9.40;99.90
9800;DHT22;4939;52.00085300;4.17406100;2023-03-26T00:50:38;9.30;99.90
9800;DHT22;4939;52.00085300;4.17406100;2023-03-26T00:53:04;9.50;99.90
9800;DHT22;4939;52.00085300;4.17406100;2023-03-26T00:55:30;9.20;99.90
9800;DHT22;4939;52.00085300;4.17406100;2023-03-26T00:57:55;9.10;99.90
9800;DHT22;4939;52.00085300;4.17406100;2023-03-26T01:00:28;9.10;99.90
9800;DHT22;4939;52.00085300;4.17406100;2023-03-26T01:02:57;9.00;99.90
9800;DHT22;4939;52.00085300;4.17406100;2023-03-26T01:08:30;8.80;99.90
9800;DHT22;4939;52.00085300;4.17406100;2023-03-26T01:11:00;8.80;99.90
9800;DHT22;4939;52.00085300;4.17406100;2023-03-26T01:13:37;8.70;99.90
9800;DHT22;4939;52.00085300;4.17406100;2023-03-26T01:16:07;8.70;99.90
9800;DHT22;4939;52.00085300;4.17406100;2023-03-26T01:18:36;8.60;99.90
9800;DHT22;4939;52.00085300;4.17406100;2023-03-26T01:21:06;8.60;99.90
9800;DHT22;4939;52.00085300;4.17406100;2023-03-26T01:23:46;8.60;99.90
9800;DHT22;4939;52.00085300;4.17406100;2023-03-26T01:29:00;8.50;99.90
9800;DHT22;4939;52.00085300;4.17406100;2023-03-26T01:31:36;8.50;99.90
9800;DHT22;4939;52.00085300;4.17406100;2023-03-26T01:37:35;8.40;99.90
9800;DHT22;4939;52.00085300;4.17406100;2023-03-26T01:40:02;8.50;99.90
9800;DHT22;4939;52.00085300;4.17406100;2023-03-26T01:42:41;8.40;99.90
9800;DHT22;4939;52.00085300;4.17406100;2023-03-26T01:45:31;8.40;99.90
9800;DHT22;4939;52.00085300;4.17406100;2023-03-26T01:47:58;8.30;99.90
9800;DHT22;4939;52.00085300;4.17406100;2023-03-26T01:50:25;8.20;99.90
9800;DHT22;4939;52.00085300;4.17406100;2023-03-26T01:52:50;8.20;99.90
9800;DHT22;4939;52.00085300;4.17406100;2023-03-26T01:55:17;8.20;99.90
9800;DHT22;4939;52.00085300;4.17406100;2023-03-26T02:00:24;8.20;99.90
9800;DHT22;4939;52.00085300;4.17406100;2023-03-26T02:03:23;8.20;99.90
9800;DHT22;4939;52.00085300;4.17406100;2023-03-26T02:06:24;8.10;99.90
9800;DHT22;4939;52.00085300;4.17406100;2023-03-26T02:08:55;8.10;99.90
9800;DHT22;4939;52.00085300;4.17406100;2023-03-26T02:11:22;8.00;99.90
9800;DHT22;4939;52.00085300;4.17406100;2023-03-26T02:13:48;8.10;99.90
9800;DHT22;4939;52.00085300;4.17406100;2023-03-26T02:16:16;8.20;99.90
9800;DHT22;4939;52.00085300;4.17406100;2023-03-26T02:18:45;8.20;99.90
9800;DHT22;4939;52.00085300;4.17406100;2023-03-26T02:21:15;8.30;99.90
9800;DHT22;4939;52.00085300;4.17406100;2023-03-26T02:23:45;8.30;99.90
9800;DHT22;4939;52.00085300;4.17406100;2023-03-26T02:26:14;8.30;99.90
9800;DHT22;4939;52.00085300;4.17406100;2023-03-26T02:28:40;8.60;99.90
9800;DHT22;4939;52.00085300;4.17406100;2023-03-26T02:31:06;8.30;99.90
9800;DHT22;4939;52.00085300;4.17406100;2023-03-26T02:33:36;8.30;99.90
9800;DHT22;4939;52.00085300;4.17406100;2023-03-26T02:36:03;8.70;99.90
9800;DHT22;4939;52.00085300;4.17406100;2023-03-26T02:38:31;8.30;99.90
9800;DHT22;4939;52.00085300;4.17406100;2023-03-26T02:41:03;8.30;99.90
9800;DHT22;4939;52.00085300;4.17406100;2023-03-26T02:43:29;8.30;99.90
9800;DHT22;4939;52.00085300;4.17406100;2023-03-26T02:45:55;8.20;99.90
9800;DHT22;4939;52.00085300;4.17406100;2023-03-26T02:48:21;8.20;99.90
9800;DHT22;4939;52.00085300;4.17406100;2023-03-26T02:50:48;8.20;99.90
9800;DHT22;4939;52.00085300;4.17406100;2023-03-26T02:53:19;8.20;99.90
9800;DHT22;4939;52.00085300;4.17406100;2023-03-26T02:55:46;8.20;99.90
9800;DHT22;4939;52.00085300;4.17406100;2023-03-26T02:58:12;8.20;99.90
9800;DHT22;4939;52.00085300;4.17406100;2023-03-26T03:00:42;8.20;99.90
9800;DHT22;4939;52.00085300;4.17406100;2023-03-26T03:03:08;8.20;99.90
9800;DHT22;4939;52.00085300;4.17406100;2023-03-26T03:05:34;8.20;99.90
9800;DHT22;4939;52.00085300;4.17406100;2023-03-26T03:08:03;8.20;99.90
9800;DHT22;4939;52.00085300;4.17406100;2023-03-26T03:10:30;8.20;99.90
9800;DHT22;4939;52.00085300;4.17406100;2023-03-26T03:12:59;8.20;99.90
9800;DHT22;4939;52.00085300;4.17406100;2023-03-26T03:15:25;8.20;99.90
9800;DHT22;4939;52.00085300;4.17406100;2023-03-26T03:17:51;8.10;99.90
9800;DHT22;4939;52.00085300;4.17406100;2023-03-26T03:20:17;8.10;99.90
9800;DHT22;4939;52.00085300;4.17406100;2023-03-26T03:22:43;8.20;99.90
9800;DHT22;4939;52.00085300;4.17406100;2023-03-26T03:25:09;10.20;99.90
9800;DHT22;4939;52.00085300;4.17406100;2023-03-26T03:27:42;8.10;99.90
9800;DHT22;4939;52.00085300;4.17406100;2023-03-26T03:30:11;8.10;99.90
9800;DHT22;4939;52.00085300;4.17406100;2023-03-26T03:32:37;8.10;99.90
9800;DHT22;4939;52.00085300;4.17406100;2023-03-26T03:35:04;8.10;99.90
9800;DHT22;4939;52.00085300;4.17406100;2023-03-26T03:37:30;8.10;99.90
9800;DHT22;4939;52.00085300;4.17406100;2023-03-26T03:39:55;8.10;99.90
9800;DHT22;4939;52.00085300;4.17406100;2023-03-26T03:42:21;8.10;99.90
9800;DHT22;4939;52.00085300;4.17406100;2023-03-26T03:44:47;8.10;99.90
9800;DHT22;4939;52.00085300;4.17406100;2023-03-26T03:47:12;8.00;99.90
9800;DHT22;4939;52.00085300;4.17406100;2023-03-26T03:49:39;9.10;99.90
9800;DHT22;4939;52.00085300;4.17406100;2023-03-26T03:52:05;8.00;99.90
9800;DHT22;4939;52.00085300;4.17406100;2023-03-26T03:54:31;8.10;99.90
9800;DHT22;4939;52.00085300;4.17406100;2023-03-26T03:56:57;8.10;99.90
9800;DHT22;4939;52.00085300;4.17406100;2023-03-26T03:59:23;8.10;99.90
9800;DHT22;4939;52.00085300;4.17406100;2023-03-26T04:01:49;8.10;99.90
9800;DHT22;4939;52.00085300;4.17406100;2023-03-26T04:04:16;8.10;99.90
9800;DHT22;4939;52.00085300;4.17406100;2023-03-26T04:06:42;9.10;99.90
9800;DHT22;4939;52.00085300;4.17406100;2023-03-26T04:09:08;8.10;99.90
9800;DHT22;4939;52.00085300;4.17406100;2023-03-26T04:11:36;8.10;99.90
9800;DHT22;4939;52.00085300;4.17406100;2023-03-26T04:14:02;8.20;99.90
9800;DHT22;4939;52.00085300;4.17406100;2023-03-26T04:16:28;8.10;99.90
9800;DHT22;4939;52.00085300;4.17406100;2023-03-26T04:18:53;8.20;99.90
9800;DHT22;4939;52.00085300;4.17406100;2023-03-26T04:21:21;8.20;99.90
9800;DHT22;4939;52.00085300;4.17406100;2023-03-26T04:23:48;8.20;99.90
9800;DHT22;4939;52.00085300;4.17406100;2023-03-26T04:26:17;8.20;99.90
9800;DHT22;4939;52.00085300;4.17406100;2023-03-26T04:28:51;8.20;99.90
9800;DHT22;4939;52.00085300;4.17406100;2023-03-26T04:31:21;8.20;99.90
9800;DHT22;4939;52.00085300;4.17406100;2023-03-26T04:33:49;8.30;99.90
9800;DHT22;4939;52.00085300;4.17406100;2023-03-26T04:36:23;8.30;99.90
9800;DHT22;4939;52.00085300;4.17406100;2023-03-26T04:38:52;8.20;99.90
9800;DHT22;4939;52.00085300;4.17406100;2023-03-26T04:41:19;8.30;99.90
9800;DHT22;4939;52.00085300;4.17406100;2023-03-26T04:43:44;8.30;99.90
9800;DHT22;4939;52.00085300;4.17406100;2023-03-26T04:46:19;8.20;99.90
9800;DHT22;4939;52.00085300;4.17406100;2023-03-26T04:48:52;8.20;99.90
9800;DHT22;4939;52.00085300;4.17406100;2023-03-26T04:51:20;8.20;99.90
9800;DHT22;4939;52.00085300;4.17406100;2023-03-26T04:53:58;8.20;99.90
9800;DHT22;4939;52.00085300;4.17406100;2023-03-26T04:59:11;8.20;99.90
9800;DHT22;4939;52.00085300;4.17406100;2023-03-26T05:01:38;8.20;99.90
9800;DHT22;4939;52.00085300;4.17406100;2023-03-26T05:04:04;8.30;99.90
9800;DHT22;4939;52.00085300;4.17406100;2023-03-26T05:06:30;8.30;99.90
9800;DHT22;4939;52.00085300;4.17406100;2023-03-26T05:08:59;8.20;99.90
9800;DHT22;4939;52.00085300;4.17406100;2023-03-26T05:11:26;8.20;99.90
9800;DHT22;4939;52.00085300;4.17406100;2023-03-26T05:13:52;8.20;99.90
9800;DHT22;4939;52.00085300;4.17406100;2023-03-26T05:16:18;8.20;99.90
9800;DHT22;4939;52.00085300;4.17406100;2023-03-26T05:18:44;8.20;99.90
9800;DHT22;4939;52.00085300;4.17406100;2023-03-26T05:21:10;8.20;99.90
9800;DHT22;4939;52.00085300;4.17406100;2023-03-26T05:23:36;8.20;99.90
9800;DHT22;4939;52.00085300;4.17406100;2023-03-26T05:26:03;8.20;99.90
9800;DHT22;4939;52.00085300;4.17406100;2023-03-26T05:28:28;8.20;99.90
9800;DHT22;4939;52.00085300;4.17406100;2023-03-26T05:30:54;8.10;99.90
9800;DHT22;4939;52.00085300;4.17406100;2023-03-26T05:33:21;9.00;99.90
9800;DHT22;4939;52.00085300;4.17406100;2023-03-26T05:35:58;8.10;99.90
9800;DHT22;4939;52.00085300;4.17406100;2023-03-26T05:38:26;8.20;99.90
9800;DHT22;4939;52.00085300;4.17406100;2023-03-26T05:41:00;8.20;99.90
9800;DHT22;4939;52.00085300;4.17406100;2023-03-26T05:43:26;8.10;99.90
9800;DHT22;4939;52.00085300;4.17406100;2023-03-26T05:45:52;8.10;99.90
9800;DHT22;4939;52.00085300;4.17406100;2023-03-26T05:48:17;8.10;99.90
9800;DHT22;4939;52.00085300;4.17406100;2023-03-26T05:50:43;8.20;99.90
9800;DHT22;4939;52.00085300;4.17406100;2023-03-26T05:53:09;8.10;99.90
9800;DHT22;4939;52.00085300;4.17406100;2023-03-26T05:55:35;8.20;99.90
9800;DHT22;4939;52.00085300;4.17406100;2023-03-26T05:58:01;8.20;99.90
9800;DHT22;4939;52.00085300;4.17406100;2023-03-26T06:00:27;8.20;99.90
9800;DHT22;4939;52.00085300;4.17406100;2023-03-26T06:02:53;8.20;99.90
9800;DHT22;4939;52.00085300;4.17406100;2023-03-26T06:05:19;8.20;99.90
9800;DHT22;4939;52.00085300;4.17406100;2023-03-26T06:07:45;8.20;99.90
9800;DHT22;4939;52.00085300;4.17406100;2023-03-26T06:10:10;8.20;99.90
9800;DHT22;4939;52.00085300;4.17406100;2023-03-26T06:12:36;8.20;99.90
9800;DHT22;4939;52.00085300;4.17406100;2023-03-26T06:15:03;8.20;99.90
9800;DHT22;4939;52.00085300;4.17406100;2023-03-26T06:17:28;8.20;99.90
9800;DHT22;4939;52.00085300;4.17406100;2023-03-26T06:19:54;8.20;99.90
9800;DHT22;4939;52.00085300;4.17406100;2023-03-26T06:22:20;8.20;99.90
9800;DHT22;4939;52.00085300;4.17406100;2023-03-26T06:24:45;8.30;99.90
9800;DHT22;4939;52.00085300;4.17406100;2023-03-26T06:27:11;8.30;99.90
9800;DHT22;4939;52.00085300;4.17406100;2023-03-26T06:29:37;8.30;99.90
9800;DHT22;4939;52.00085300;4.17406100;2023-03-26T06:32:02;8.20;99.90
9800;DHT22;4939;52.00085300;4.17406100;2023-03-26T06:34:28;8.30;99.90
9800;DHT22;4939;52.00085300;4.17406100;2023-03-26T06:36:54;8.30;99.90
9800;DHT22;4939;52.00085300;4.17406100;2023-03-26T06:39:20;8.30;99.90
9800;DHT22;4939;52.00085300;4.17406100;2023-03-26T06:41:46;8.30;99.90
9800;DHT22;4939;52.00085300;4.17406100;2023-03-26T06:44:12;8.40;99.90
9800;DHT22;4939;52.00085300;4.17406100;2023-03-26T06:46:38;8.40;99.90
9800;DHT22;4939;52.00085300;4.17406100;2023-03-26T06:49:03;8.40;99.90
9800;DHT22;4939;52.00085300;4.17406100;2023-03-26T06:51:29;8.40;99.90
9800;DHT22;4939;52.00085300;4.17406100;2023-03-26T06:53:55;8.40;99.90
9800;DHT22;4939;52.00085300;4.17406100;2023-03-26T06:56:20;8.40;99.90
9800;DHT22;4939;52.00085300;4.17406100;2023-03-26T06:58:46;8.40;99.90
9800;DHT22;4939;52.00085300;4.17406100;2023-03-26T07:01:12;8.40;99.90
9800;DHT22;4939;52.00085300;4.17406100;2023-03-26T07:03:37;8.40;99.90
9800;DHT22;4939;52.00085300;4.17406100;2023-03-26T07:06:03;8.40;99.90
9800;DHT22;4939;52.00085300;4.17406100;2023-03-26T07:08:29;8.40;99.90
9800;DHT22;4939;52.00085300;4.17406100;2023-03-26T07:10:56;8.30;99.90
9800;DHT22;4939;52.00085300;4.17406100;2023-03-26T07:13:21;8.30;99.90
9800;DHT22;4939;52.00085300;4.17406100;2023-03-26T07:15:47;8.30;99.90
9800;DHT22;4939;52.00085300;4.17406100;2023-03-26T07:18:13;8.30;99.90
9800;DHT22;4939;52.00085300;4.17406100;2023-03-26T07:20:39;8.30;99.90
9800;DHT22;4939;52.00085300;4.17406100;2023-03-26T07:23:07;8.30;99.90
9800;DHT22;4939;52.00085300;4.17406100;2023-03-26T07:25:34;8.20;99.90
9800;DHT22;4939;52.00085300;4.17406100;2023-03-26T07:28:22;8.20;99.90
9800;DHT22;4939;52.00085300;4.17406100;2023-03-26T07:31:05;8.20;99.90
9800;DHT22;4939;52.00085300;4.17406100;2023-03-26T07:34:11;8.20;99.90
9800;DHT22;4939;52.00085300;4.17406100;2023-03-26T07:36:47;8.20;99.90
9800;DHT22;4939;52.00085300;4.17406100;2023-03-26T07:39:35;8.20;99.90
9800;DHT22;4939;52.00085300;4.17406100;2023-03-26T07:47:31;8.10;99.90
9800;DHT22;4939;52.00085300;4.17406100;2023-03-26T07:49:58;8.10;99.90
9800;DHT22;4939;52.00085300;4.17406100;2023-03-26T07:52:25;8.20;99.90
9800;DHT22;4939;52.00085300;4.17406100;2023-03-26T07:54:51;8.20;99.90
9800;DHT22;4939;52.00085300;4.17406100;2023-03-26T07:57:48;8.10;99.90
9800;DHT22;4939;52.00085300;4.17406100;2023-03-26T08:00:40;8.10;99.90
9800;DHT22;4939;52.00085300;4.17406100;2023-03-26T08:08:52;8.10;99.90
9800;DHT22;4939;52.00085300;4.17406100;2023-03-26T08:17:01;8.10;99.90
9800;DHT22;4939;52.00085300;4.17406100;2023-03-26T08:25:28;8.10;99.90
9800;DHT22;4939;52.00085300;4.17406100;2023-03-26T08:30:57;8.10;99.90
9800;DHT22;4939;52.00085300;4.17406100;2023-03-26T08:33:27;8.20;99.90
9800;DHT22;4939;52.00085300;4.17406100;2023-03-26T08:35:53;8.20;99.90
9800;DHT22;4939;52.00085300;4.17406100;2023-03-26T08:38:20;8.10;99.90
9800;DHT22;4939;52.00085300;4.17406100;2023-03-26T08:55:29;8.20;99.90
9800;DHT22;4939;52.00085300;4.17406100;2023-03-26T08:58:27;8.30;99.90
9800;DHT22;4939;52.00085300;4.17406100;2023-03-26T09:04:50;8.30;99.90
9800;DHT22;4939;52.00085300;4.17406100;2023-03-26T09:12:21;8.40;99.90
9800;DHT22;4939;52.00085300;4.17406100;2023-03-26T09:15:29;8.50;99.90
9800;DHT22;4939;52.00085300;4.17406100;2023-03-26T09:23:17;8.70;99.90
9800;DHT22;4939;52.00085300;4.17406100;2023-03-26T09:26:23;8.70;99.90
9800;DHT22;4939;52.00085300;4.17406100;2023-03-26T09:34:50;8.90;99.90
9800;DHT22;4939;52.00085300;4.17406100;2023-03-26T09:37:27;8.90;99.90
9800;DHT22;4939;52.00085300;4.17406100;2023-03-26T09:40:18;8.90;99.90
9800;DHT22;4939;52.00085300;4.17406100;2023-03-26T09:56:48;8.90;99.90
9800;DHT22;4939;52.00085300;4.17406100;2023-03-26T10:02:21;8.70;99.90
9800;DHT22;4939;52.00085300;4.17406100;2023-03-26T10:05:07;8.60;99.90
9800;DHT22;4939;52.00085300;4.17406100;2023-03-26T10:10:33;8.50;99.90
9800;DHT22;4939;52.00085300;4.17406100;2023-03-26T10:15:56;8.50;99.90
9800;DHT22;4939;52.00085300;4.17406100;2023-03-26T10:47:09;8.60;99.90
9800;DHT22;4939;52.00085300;4.17406100;2023-03-26T10:49:52;8.60;99.90
9800;DHT22;4939;52.00085300;4.17406100;2023-03-26T10:52:57;8.60;99.90
9800;DHT22;4939;52.00085300;4.17406100;2023-03-26T10:55:36;8.50;99.90
9800;DHT22;4939;52.00085300;4.17406100;2023-03-26T10:58:19;8.50;99.90
9800;DHT22;4939;52.00085300;4.17406100;2023-03-26T11:03:49;8.50;99.90
9800;DHT22;4939;52.00085300;4.17406100;2023-03-26T11:06:25;8.50;99.90
9800;DHT22;4939;52.00085300;4.17406100;2023-03-26T11:19:50;8.70;99.90
9800;DHT22;4939;52.00085300;4.17406100;2023-03-26T11:25:28;8.60;99.90
9800;DHT22;4939;52.00085300;4.17406100;2023-03-26T11:28:12;8.70;99.90
9800;DHT22;4939;52.00085300;4.17406100;2023-03-26T11:33:42;8.60;99.90
9800;DHT22;4939;52.00085300;4.17406100;2023-03-26T11:36:12;8.60;99.90
9800;DHT22;4939;52.00085300;4.17406100;2023-03-26T11:38:46;8.40;99.90
9800;DHT22;4939;52.00085300;4.17406100;2023-03-26T11:41:22;8.50;99.90
9800;DHT22;4939;52.00085300;4.17406100;2023-03-26T11:43:58;8.50;99.90
9800;DHT22;4939;52.00085300;4.17406100;2023-03-26T11:46:25;8.60;99.90
9800;DHT22;4939;52.00085300;4.17406100;2023-03-26T11:49:00;8.70;99.90
9800;DHT22;4939;52.00085300;4.17406100;2023-03-26T11:51:33;8.70;99.90
9800;DHT22;4939;52.00085300;4.17406100;2023-03-26T11:54:01;8.70;99.90
9800;DHT22;4939;52.00085300;4.17406100;2023-03-26T11:59:03;8.70;99.90
9800;DHT22;4939;52.00085300;4.17406100;2023-03-26T12:04:40;8.70;99.90
9800;DHT22;4939;52.00085300;4.17406100;2023-03-26T12:07:29;8.70;99.90
9800;DHT22;4939;52.00085300;4.17406100;2023-03-26T12:10:18;8.80;99.90
9800;DHT22;4939;52.00085300;4.17406100;2023-03-26T12:12:46;8.90;99.90
9800;DHT22;4939;52.00085300;4.17406100;2023-03-26T12:15:17;9.00;99.90
9800;DHT22;4939;52.00085300;4.17406100;2023-03-26T12:17:45;9.20;99.90
9800;DHT22;4939;52.00085300;4.17406100;2023-03-26T12:22:47;9.50;99.90
9800;DHT22;4939;52.00085300;4.17406100;2023-03-26T12:30:40;10.10;99.90
9800;DHT22;4939;52.00085300;4.17406100;2023-03-26T12:33:26;10.10;99.90
9800;DHT22;4939;52.00085300;4.17406100;2023-03-26T12:35:55;10.10;99.90
9800;DHT22;4939;52.00085300;4.17406100;2023-03-26T12:41:10;10.20;99.90
9800;DHT22;4939;52.00085300;4.17406100;2023-03-26T12:43:44;10.20;99.90
9800;DHT22;4939;52.00085300;4.17406100;2023-03-26T12:46:30;10.10;99.90
9800;DHT22;4939;52.00085300;4.17406100;2023-03-26T12:49:02;10.00;99.90
9800;DHT22;4939;52.00085300;4.17406100;2023-03-26T12:57:27;10.00;99.90
9800;DHT22;4939;52.00085300;4.17406100;2023-03-26T13:05:48;9.80;99.90
9800;DHT22;4939;52.00085300;4.17406100;2023-03-26T13:11:54;9.70;99.90
9800;DHT22;4939;52.00085300;4.17406100;2023-03-26T13:14:46;9.80;99.90
9800;DHT22;4939;52.00085300;4.17406100;2023-03-26T13:19:58;9.90;99.90
9800;DHT22;4939;52.00085300;4.17406100;2023-03-26T13:22:37;9.90;99.90
9800;DHT22;4939;52.00085300;4.17406100;2023-03-26T13:27:53;9.80;99.90
9800;DHT22;4939;52.00085300;4.17406100;2023-03-26T13:30:40;9.90;99.90
9800;DHT22;4939;52.00085300;4.17406100;2023-03-26T13:36:39;9.90;99.90
9800;DHT22;4939;52.00085300;4.17406100;2023-03-26T13:41:47;10.10;99.90
9800;DHT22;4939;52.00085300;4.17406100;2023-03-26T13:44:25;10.20;99.90
9800;DHT22;4939;52.00085300;4.17406100;2023-03-26T13:46:59;10.00;99.90
9800;DHT22;4939;52.00085300;4.17406100;2023-03-26T13:50:16;10.10;99.90
9800;DHT22;4939;52.00085300;4.17406100;2023-03-26T13:52:47;9.90;99.90
9800;DHT22;4939;52.00085300;4.17406100;2023-03-26T13:58:49;9.70;99.90
9800;DHT22;4939;52.00085300;4.17406100;2023-03-26T14:01:18;9.70;99.90
9800;DHT22;4939;52.00085300;4.17406100;2023-03-26T14:06:49;9.50;99.90
9800;DHT22;4939;52.00085300;4.17406100;2023-03-26T14:09:44;9.50;99.90
9800;DHT22;4939;52.00085300;4.17406100;2023-03-26T14:15:10;9.70;99.90
9800;DHT22;4939;52.00085300;4.17406100;2023-03-26T14:17:52;10.00;99.90
9800;DHT22;4939;52.00085300;4.17406100;2023-03-26T14:28:56;10.30;99.90
9800;DHT22;4939;52.00085300;4.17406100;2023-03-26T14:31:50;10.20;99.90
9800;DHT22;4939;52.00085300;4.17406100;2023-03-26T14:44:04;9.70;99.90
9800;DHT22;4939;52.00085300;4.17406100;2023-03-26T14:46:41;9.60;99.90
9800;DHT22;4939;52.00085300;4.17406100;2023-03-26T14:54:47;10.00;99.90
9800;DHT22;4939;52.00085300;4.17406100;2023-03-26T15:00:33;10.00;99.90
9800;DHT22;4939;52.00085300;4.17406100;2023-03-26T15:11:24;9.20;99.90
9800;DHT22;4939;52.00085300;4.17406100;2023-03-26T15:20:14;9.10;99.90
9800;DHT22;4939;52.00085300;4.17406100;2023-03-26T15:28:33;8.90;99.90
9800;DHT22;4939;52.00085300;4.17406100;2023-03-26T15:35:18;8.70;99.90
9800;DHT22;4939;52.00085300;4.17406100;2023-03-26T15:40:27;8.90;99.90
9800;DHT22;4939;52.00085300;4.17406100;2023-03-26T15:43:10;9.00;99.90
9800;DHT22;4939;52.00085300;4.17406100;2023-03-26T15:45:54;9.30;99.90
9800;DHT22;4939;52.00085300;4.17406100;2023-03-26T15:57:06;10.10;99.90
9800;DHT22;4939;52.00085300;4.17406100;2023-03-26T15:59:39;10.00;99.90
9800;DHT22;4939;52.00085300;4.17406100;2023-03-26T16:07:36;9.90;99.90
9800;DHT22;4939;52.00085300;4.17406100;2023-03-26T16:16:10;9.70;99.90
9800;DHT22;4939;52.00085300;4.17406100;2023-03-26T16:18:43;9.60;99.90
9800;DHT22;4939;52.00085300;4.17406100;2023-03-26T16:21:33;9.40;99.90
9800;DHT22;4939;52.00085300;4.17406100;2023-03-26T16:29:16;8.90;99.90
9800;DHT22;4939;52.00085300;4.17406100;2023-03-26T16:38:04;8.80;99.90
9800;DHT22;4939;52.00085300;4.17406100;2023-03-26T16:40:57;8.90;99.90
9800;DHT22;4939;52.00085300;4.17406100;2023-03-26T16:43:34;8.80;99.90
9800;DHT22;4939;52.00085300;4.17406100;2023-03-26T16:51:21;8.20;99.90
9800;DHT22;4939;52.00085300;4.17406100;2023-03-26T16:56:48;8.10;99.90
9800;DHT22;4939;52.00085300;4.17406100;2023-03-26T17:08:17;7.90;99.90
9800;DHT22;4939;52.00085300;4.17406100;2023-03-26T17:10:56;7.80;99.90
9800;DHT22;4939;52.00085300;4.17406100;2023-03-26T17:18:55;7.80;99.90
9800;DHT22;4939;52.00085300;4.17406100;2023-03-26T17:32:13;7.80;99.90
9800;DHT22;4939;52.00085300;4.17406100;2023-03-26T17:34:40;7.80;99.90
9800;DHT22;4939;52.00085300;4.17406100;2023-03-26T17:42:27;7.70;99.90
9800;DHT22;4939;52.00085300;4.17406100;2023-03-26T17:45:19;7.60;99.90
9800;DHT22;4939;52.00085300;4.17406100;2023-03-26T17:48:07;7.60;99.90
9800;DHT22;4939;52.00085300;4.17406100;2023-03-26T17:50:54;7.50;99.90
9800;DHT22;4939;52.00085300;4.17406100;2023-03-26T17:53:30;7.50;99.90
9800;DHT22;4939;52.00085300;4.17406100;2023-03-26T17:56:02;7.40;99.90
9800;DHT22;4939;52.00085300;4.17406100;2023-03-26T17:58:34;7.40;99.90
9800;DHT22;4939;52.00085300;4.17406100;2023-03-26T18:01:03;7.40;99.90
9800;DHT22;4939;52.00085300;4.17406100;2023-03-26T18:03:44;7.40;16.10
9800;DHT22;4939;52.00085300;4.17406100;2023-03-26T18:06:24;7.40;99.90
9800;DHT22;4939;52.00085300;4.17406100;2023-03-26T18:09:05;7.40;99.90
9800;DHT22;4939;52.00085300;4.17406100;2023-03-26T18:17:12;7.20;99.90
9800;DHT22;4939;52.00085300;4.17406100;2023-03-26T18:19:51;7.20;99.90
9800;DHT22;4939;52.00085300;4.17406100;2023-03-26T18:22:28;7.10;99.90
9800;DHT22;4939;52.00085300;4.17406100;2023-03-26T18:24:59;7.20;99.90
9800;DHT22;4939;52.00085300;4.17406100;2023-03-26T18:27:32;7.10;1.00
9800;DHT22;4939;52.00085300;4.17406100;2023-03-26T18:30:02;7.10;1.00
9800;DHT22;4939;52.00085300;4.17406100;2023-03-26T18:32:38;7.20;99.90
9800;DHT22;4939;52.00085300;4.17406100;2023-03-26T18:35:17;7.30;99.90
9800;DHT22;4939;52.00085300;4.17406100;2023-03-26T18:37:45;7.30;99.90
9800;DHT22;4939;52.00085300;4.17406100;2023-03-26T18:40:14;7.20;99.90
9800;DHT22;4939;52.00085300;4.17406100;2023-03-26T18:42:48;7.20;99.90
9800;DHT22;4939;52.00085300;4.17406100;2023-03-26T18:47:50;7.20;99.90
9800;DHT22;4939;52.00085300;4.17406100;2023-03-26T18:50:22;7.20;99.90
9800;DHT22;4939;52.00085300;4.17406100;2023-03-26T18:52:49;7.20;99.90
9800;DHT22;4939;52.00085300;4.17406100;2023-03-26T18:55:15;7.20;99.90
9800;DHT22;4939;52.00085300;4.17406100;2023-03-26T18:57:42;7.30;99.90
9800;DHT22;4939;52.00085300;4.17406100;2023-03-26T19:00:17;7.20;99.90
9800;DHT22;4939;52.00085300;4.17406100;2023-03-26T19:02:46;7.20;99.90
9800;DHT22;4939;52.00085300;4.17406100;2023-03-26T19:05:18;7.20;99.90
9800;DHT22;4939;52.00085300;4.17406100;2023-03-26T19:07:44;7.30;99.90
9800;DHT22;4939;52.00085300;4.17406100;2023-03-26T19:10:16;7.30;99.90
9800;DHT22;4939;52.00085300;4.17406100;2023-03-26T19:12:56;7.20;99.90
9800;DHT22;4939;52.00085300;4.17406100;2023-03-26T19:15:24;7.20;99.90
9800;DHT22;4939;52.00085300;4.17406100;2023-03-26T19:17:54;7.20;99.90
9800;DHT22;4939;52.00085300;4.17406100;2023-03-26T19:20:26;7.20;99.90
9800;DHT22;4939;52.00085300;4.17406100;2023-03-26T19:22:53;7.10;81.00
9800;DHT22;4939;52.00085300;4.17406100;2023-03-26T19:25:28;7.10;1.00
9800;DHT22;4939;52.00085300;4.17406100;2023-03-26T19:27:55;7.00;1.00
9800;DHT22;4939;52.00085300;4.17406100;2023-03-26T19:30:34;7.10;1.00
9800;DHT22;4939;52.00085300;4.17406100;2023-03-26T19:33:05;7.10;1.00
9800;DHT22;4939;52.00085300;4.17406100;2023-03-26T19:35:38;7.10;1.00
9800;DHT22;4939;52.00085300;4.17406100;2023-03-26T19:38:25;7.00;14.80
9800;DHT22;4939;52.00085300;4.17406100;2023-03-26T19:40:53;7.00;14.90
9800;DHT22;4939;52.00085300;4.17406100;2023-03-26T19:43:20;7.10;86.10
9800;DHT22;4939;52.00085300;4.17406100;2023-03-26T19:45:49;7.10;61.20
9800;DHT22;4939;52.00085300;4.17406100;2023-03-26T19:48:18;7.10;98.10
9800;DHT22;4939;52.00085300;4.17406100;2023-03-26T19:50:54;7.10;1.00
9800;DHT22;4939;52.00085300;4.17406100;2023-03-26T19:58:27;7.00;1.00